sensor_id;sensor_type;location;lat;lon;timestamp;P1;durP1;ratioP1;P2;durP2;ratioP2
6527;SDS011;64597;42.664;23.256;2024-01-11T00:00:04;6.63;;;4.32;;
6527;SDS011;64597;42.664;23.256;2024-01-11T00:02:30;7.00;;;4.70;;
6527;SDS011;64597;42.664;23.256;2024-01-11T00:04:55;8.27;;;3.95;;
6527;SDS011;64597;42.664;23.256;2024-01-11T00:07:21;5.50;;;3.47;;
6527;SDS011;64597;42.664;23.256;2024-01-11T00:09:46;8.40;;;5.07;;
6527;SDS011;64597;42.664;23.256;2024-01-11T00:12:11;6.20;;;4.15;;
6527;SDS011;64597;42.664;23.256;2024-01-11T00:14:37;12.10;;;5.50;;
6527;SDS011;64597;42.664;23.256;2024-01-11T00:17:02;6.82;;;3.72;;
6527;SDS011;64597;42.664;23.256;2024-01-11T00:19:28;7.10;;;5.55;;
6527;SDS011;64597;42.664;23.256;2024-01-11T00:21:54;11.43;;;5.38;;
6527;SDS011;64597;42.664;23.256;2024-01-11T00:24:19;6.80;;;4.80;;
6527;SDS011;64597;42.664;23.256;2024-01-11T00:26:45;8.15;;;3.70;;
6527;SDS011;64597;42.664;23.256;2024-01-11T00:29:10;5.13;;;4.15;;
6527;SDS011;64597;42.664;23.256;2024-01-11T00:31:35;14.82;;;5.18;;
6527;SDS011;64597;42.664;23.256;2024-01-11T00:34:02;13.55;;;6.53;;
6527;SDS011;64597;42.664;23.256;2024-01-11T00:36:28;5.85;;;4.75;;
6527;SDS011;64597;42.664;23.256;2024-01-11T00:38:53;10.13;;;4.88;;
6527;SDS011;64597;42.664;23.256;2024-01-11T00:41:19;6.57;;;5.05;;
6527;SDS011;64597;42.664;23.256;2024-01-11T00:43:44;12.43;;;4.43;;
6527;SDS011;64597;42.664;23.256;2024-01-11T00:46:10;9.43;;;5.30;;
6527;SDS011;64597;42.664;23.256;2024-01-11T00:48:35;9.50;;;4.55;;
6527;SDS011;64597;42.664;23.256;2024-01-11T00:51:01;10.38;;;5.75;;
6527;SDS011;64597;42.664;23.256;2024-01-11T00:53:26;5.03;;;3.83;;
6527;SDS011;64597;42.664;23.256;2024-01-11T00:55:59;9.95;;;4.80;;
6527;SDS011;64597;42.664;23.256;2024-01-11T00:58:25;12.27;;;5.53;;
6527;SDS011;64597;42.664;23.256;2024-01-11T01:00:51;7.72;;;5.00;;
6527;SDS011;64597;42.664;23.256;2024-01-11T01:03:18;5.22;;;3.15;;
6527;SDS011;64597;42.664;23.256;2024-01-11T01:05:46;8.25;;;4.85;;
6527;SDS011;64597;42.664;23.256;2024-01-11T01:08:12;10.40;;;5.07;;
6527;SDS011;64597;42.664;23.256;2024-01-11T01:10:38;9.80;;;5.25;;
6527;SDS011;64597;42.664;23.256;2024-01-11T01:13:03;10.30;;;5.30;;
6527;SDS011;64597;42.664;23.256;2024-01-11T01:15:29;10.13;;;5.15;;
6527;SDS011;64597;42.664;23.256;2024-01-11T01:17:54;7.95;;;3.80;;
6527;SDS011;64597;42.664;23.256;2024-01-11T01:20:20;4.55;;;2.75;;
6527;SDS011;64597;42.664;23.256;2024-01-11T01:22:45;14.65;;;4.55;;
6527;SDS011;64597;42.664;23.256;2024-01-11T01:25:11;4.85;;;3.25;;
6527;SDS011;64597;42.664;23.256;2024-01-11T01:27:36;4.82;;;3.30;;
6527;SDS011;64597;42.664;23.256;2024-01-11T01:30:02;7.53;;;4.25;;
6527;SDS011;64597;42.664;23.256;2024-01-11T01:32:28;7.03;;;3.55;;
6527;SDS011;64597;42.664;23.256;2024-01-11T01:34:53;6.65;;;2.92;;
6527;SDS011;64597;42.664;23.256;2024-01-11T01:37:18;7.13;;;4.68;;
6527;SDS011;64597;42.664;23.256;2024-01-11T01:39:44;7.43;;;4.13;;
6527;SDS011;64597;42.664;23.256;2024-01-11T01:42:09;3.85;;;2.60;;
6527;SDS011;64597;42.664;23.256;2024-01-11T01:44:35;7.10;;;4.03;;
6527;SDS011;64597;42.664;23.256;2024-01-11T01:47:00;9.57;;;5.10;;
6527;SDS011;64597;42.664;23.256;2024-01-11T01:49:27;13.68;;;3.80;;
6527;SDS011;64597;42.664;23.256;2024-01-11T01:51:53;7.80;;;3.33;;
6527;SDS011;64597;42.664;23.256;2024-01-11T01:54:19;4.72;;;3.15;;
6527;SDS011;64597;42.664;23.256;2024-01-11T01:56:46;4.60;;;2.97;;
6527;SDS011;64597;42.664;23.256;2024-01-11T01:59:12;9.02;;;3.22;;
6527;SDS011;64597;42.664;23.256;2024-01-11T02:01:39;9.95;;;2.92;;
6527;SDS011;64597;42.664;23.256;2024-01-11T02:04:05;7.60;;;3.28;;
6527;SDS011;64597;42.664;23.256;2024-01-11T02:06:31;6.13;;;3.83;;
6527;SDS011;64597;42.664;23.256;2024-01-11T02:08:59;9.77;;;4.65;;
6527;SDS011;64597;42.664;23.256;2024-01-11T02:11:28;8.20;;;3.75;;
6527;SDS011;64597;42.664;23.256;2024-01-11T02:13:53;8.10;;;3.50;;
6527;SDS011;64597;42.664;23.256;2024-01-11T02:16:20;5.10;;;3.85;;
6527;SDS011;64597;42.664;23.256;2024-01-11T02:18:45;6.88;;;4.15;;
6527;SDS011;64597;42.664;23.256;2024-01-11T02:21:11;5.53;;;3.42;;
6527;SDS011;64597;42.664;23.256;2024-01-11T02:23:42;6.00;;;4.18;;
6527;SDS011;64597;42.664;23.256;2024-01-11T02:26:14;5.78;;;3.13;;
6527;SDS011;64597;42.664;23.256;2024-01-11T02:28:46;8.90;;;3.95;;
6527;SDS011;64597;42.664;23.256;2024-01-11T02:31:15;7.85;;;3.70;;
6527;SDS011;64597;42.664;23.256;2024-01-11T02:33:40;5.60;;;2.83;;
6527;SDS011;64597;42.664;23.256;2024-01-11T02:36:07;5.78;;;3.30;;
6527;SDS011;64597;42.664;23.256;2024-01-11T02:38:32;9.38;;;4.43;;
6527;SDS011;64597;42.664;23.256;2024-01-11T02:40:59;6.13;;;3.65;;
6527;SDS011;64597;42.664;23.256;2024-01-11T02:43:24;5.78;;;3.80;;
6527;SDS011;64597;42.664;23.256;2024-01-11T02:45:53;3.50;;;3.20;;
6527;SDS011;64597;42.664;23.256;2024-01-11T02:48:19;4.30;;;2.53;;
6527;SDS011;64597;42.664;23.256;2024-01-11T02:50:45;4.03;;;2.55;;
6527;SDS011;64597;42.664;23.256;2024-01-11T02:53:10;7.80;;;4.32;;
6527;SDS011;64597;42.664;23.256;2024-01-11T02:55:35;6.25;;;3.72;;
6527;SDS011;64597;42.664;23.256;2024-01-11T02:58:01;10.38;;;4.00;;
6527;SDS011;64597;42.664;23.256;2024-01-11T03:00:26;6.22;;;3.15;;
6527;SDS011;64597;42.664;23.256;2024-01-11T03:02:52;6.65;;;3.70;;
6527;SDS011;64597;42.664;23.256;2024-01-11T03:05:17;3.97;;;2.30;;
6527;SDS011;64597;42.664;23.256;2024-01-11T03:07:42;7.78;;;3.40;;
6527;SDS011;64597;42.664;23.256;2024-01-11T03:10:08;4.75;;;2.63;;
6527;SDS011;64597;42.664;23.256;2024-01-11T03:12:34;5.13;;;3.05;;
6527;SDS011;64597;42.664;23.256;2024-01-11T03:15:00;5.10;;;3.70;;
6527;SDS011;64597;42.664;23.256;2024-01-11T03:17:25;9.90;;;4.07;;
6527;SDS011;64597;42.664;23.256;2024-01-11T03:19:51;4.45;;;2.40;;
6527;SDS011;64597;42.664;23.256;2024-01-11T03:22:16;8.98;;;4.28;;
6527;SDS011;64597;42.664;23.256;2024-01-11T03:24:41;6.32;;;3.80;;
6527;SDS011;64597;42.664;23.256;2024-01-11T03:27:07;7.85;;;3.15;;
6527;SDS011;64597;42.664;23.256;2024-01-11T03:29:32;8.38;;;3.53;;
6527;SDS011;64597;42.664;23.256;2024-01-11T03:31:58;7.97;;;3.65;;
6527;SDS011;64597;42.664;23.256;2024-01-11T03:34:23;7.00;;;3.28;;
6527;SDS011;64597;42.664;23.256;2024-01-11T03:36:49;7.97;;;3.78;;
6527;SDS011;64597;42.664;23.256;2024-01-11T03:39:14;4.90;;;3.40;;
6527;SDS011;64597;42.664;23.256;2024-01-11T03:41:43;6.55;;;3.75;;
6527;SDS011;64597;42.664;23.256;2024-01-11T03:44:09;5.50;;;3.80;;
6527;SDS011;64597;42.664;23.256;2024-01-11T03:46:35;6.28;;;4.38;;
6527;SDS011;64597;42.664;23.256;2024-01-11T03:49:00;17.17;;;4.18;;
6527;SDS011;64597;42.664;23.256;2024-01-11T03:51:26;6.05;;;4.05;;
6527;SDS011;64597;42.664;23.256;2024-01-11T03:53:51;6.03;;;3.33;;
6527;SDS011;64597;42.664;23.256;2024-01-11T03:56:17;6.32;;;3.58;;
6527;SDS011;64597;42.664;23.256;2024-01-11T03:58:42;5.05;;;4.53;;
6527;SDS011;64597;42.664;23.256;2024-01-11T04:01:09;8.93;;;4.43;;
6527;SDS011;64597;42.664;23.256;2024-01-11T04:03:35;12.30;;;3.90;;
6527;SDS011;64597;42.664;23.256;2024-01-11T04:06:02;7.45;;;3.65;;
6527;SDS011;64597;42.664;23.256;2024-01-11T04:08:27;4.45;;;3.30;;
6527;SDS011;64597;42.664;23.256;2024-01-11T04:10:53;7.53;;;5.63;;
6527;SDS011;64597;42.664;23.256;2024-01-11T04:13:18;7.00;;;3.50;;
6527;SDS011;64597;42.664;23.256;2024-01-11T04:15:44;5.90;;;2.72;;
6527;SDS011;64597;42.664;23.256;2024-01-11T04:18:09;5.72;;;4.95;;
6527;SDS011;64597;42.664;23.256;2024-01-11T04:20:34;7.85;;;3.90;;
6527;SDS011;64597;42.664;23.256;2024-01-11T04:23:00;10.82;;;4.55;;
6527;SDS011;64597;42.664;23.256;2024-01-11T04:25:25;9.07;;;5.15;;
6527;SDS011;64597;42.664;23.256;2024-01-11T04:27:51;9.23;;;5.97;;
6527;SDS011;64597;42.664;23.256;2024-01-11T04:30:16;5.03;;;4.43;;
6527;SDS011;64597;42.664;23.256;2024-01-11T04:32:41;9.18;;;6.43;;
6527;SDS011;64597;42.664;23.256;2024-01-11T04:35:07;11.50;;;5.13;;
6527;SDS011;64597;42.664;23.256;2024-01-11T04:37:33;6.78;;;5.55;;
6527;SDS011;64597;42.664;23.256;2024-01-11T04:40:00;11.88;;;5.72;;
6527;SDS011;64597;42.664;23.256;2024-01-11T04:42:27;9.68;;;5.32;;
6527;SDS011;64597;42.664;23.256;2024-01-11T04:44:53;8.10;;;5.20;;
6527;SDS011;64597;42.664;23.256;2024-01-11T04:47:18;10.10;;;5.20;;
6527;SDS011;64597;42.664;23.256;2024-01-11T04:49:44;9.73;;;4.85;;
6527;SDS011;64597;42.664;23.256;2024-01-11T04:52:09;10.45;;;5.43;;
6527;SDS011;64597;42.664;23.256;2024-01-11T04:54:35;8.95;;;5.60;;
6527;SDS011;64597;42.664;23.256;2024-01-11T04:57:00;21.65;;;8.23;;
6527;SDS011;64597;42.664;23.256;2024-01-11T04:59:25;11.27;;;6.65;;
6527;SDS011;64597;42.664;23.256;2024-01-11T05:01:51;8.48;;;4.60;;
6527;SDS011;64597;42.664;23.256;2024-01-11T05:04:16;13.20;;;7.10;;
6527;SDS011;64597;42.664;23.256;2024-01-11T05:06:42;11.52;;;6.72;;
6527;SDS011;64597;42.664;23.256;2024-01-11T05:09:07;13.95;;;5.68;;
6527;SDS011;64597;42.664;23.256;2024-01-11T05:11:33;9.75;;;4.85;;
6527;SDS011;64597;42.664;23.256;2024-01-11T05:13:58;17.90;;;7.25;;
6527;SDS011;64597;42.664;23.256;2024-01-11T05:16:24;11.57;;;6.30;;
6527;SDS011;64597;42.664;23.256;2024-01-11T05:18:51;10.30;;;6.35;;
6527;SDS011;64597;42.664;23.256;2024-01-11T05:21:17;16.75;;;6.05;;
6527;SDS011;64597;42.664;23.256;2024-01-11T05:23:43;11.50;;;7.78;;
6527;SDS011;64597;42.664;23.256;2024-01-11T05:26:09;16.90;;;7.10;;
6527;SDS011;64597;42.664;23.256;2024-01-11T05:28:35;12.65;;;5.38;;
6527;SDS011;64597;42.664;23.256;2024-01-11T05:31:01;12.43;;;7.82;;
6527;SDS011;64597;42.664;23.256;2024-01-11T05:33:26;10.55;;;7.30;;
6527;SDS011;64597;42.664;23.256;2024-01-11T05:35:52;14.68;;;7.07;;
6527;SDS011;64597;42.664;23.256;2024-01-11T05:38:18;9.18;;;6.15;;
6527;SDS011;64597;42.664;23.256;2024-01-11T05:40:44;5.85;;;4.47;;
6527;SDS011;64597;42.664;23.256;2024-01-11T05:43:13;9.30;;;6.47;;
6527;SDS011;64597;42.664;23.256;2024-01-11T05:45:38;8.45;;;6.28;;
6527;SDS011;64597;42.664;23.256;2024-01-11T05:48:03;12.55;;;6.07;;
6527;SDS011;64597;42.664;23.256;2024-01-11T05:50:30;10.63;;;6.30;;
6527;SDS011;64597;42.664;23.256;2024-01-11T05:52:56;9.15;;;6.00;;
6527;SDS011;64597;42.664;23.256;2024-01-11T05:55:22;8.63;;;5.65;;
6527;SDS011;64597;42.664;23.256;2024-01-11T05:57:48;11.45;;;5.88;;
6527;SDS011;64597;42.664;23.256;2024-01-11T06:00:13;11.35;;;4.90;;
6527;SDS011;64597;42.664;23.256;2024-01-11T06:02:39;13.75;;;6.88;;
6527;SDS011;64597;42.664;23.256;2024-01-11T06:05:07;12.32;;;7.03;;
6527;SDS011;64597;42.664;23.256;2024-01-11T06:07:34;9.98;;;5.18;;
6527;SDS011;64597;42.664;23.256;2024-01-11T06:09:59;6.05;;;5.05;;
6527;SDS011;64597;42.664;23.256;2024-01-11T06:12:27;7.55;;;5.82;;
6527;SDS011;64597;42.664;23.256;2024-01-11T06:14:53;6.53;;;5.25;;
6527;SDS011;64597;42.664;23.256;2024-01-11T06:17:18;6.05;;;4.35;;
6527;SDS011;64597;42.664;23.256;2024-01-11T06:19:44;14.85;;;5.00;;
6527;SDS011;64597;42.664;23.256;2024-01-11T06:22:09;17.25;;;9.32;;
6527;SDS011;64597;42.664;23.256;2024-01-11T06:24:35;5.60;;;2.60;;
6527;SDS011;64597;42.664;23.256;2024-01-11T06:27:00;18.88;;;10.52;;
6527;SDS011;64597;42.664;23.256;2024-01-11T06:29:26;20.33;;;11.15;;
6527;SDS011;64597;42.664;23.256;2024-01-11T06:31:54;14.23;;;8.52;;
6527;SDS011;64597;42.664;23.256;2024-01-11T06:34:25;17.48;;;9.90;;
6527;SDS011;64597;42.664;23.256;2024-01-11T06:36:50;18.33;;;10.43;;
6527;SDS011;64597;42.664;23.256;2024-01-11T06:39:15;20.98;;;13.07;;
6527;SDS011;64597;42.664;23.256;2024-01-11T06:41:42;27.00;;;14.70;;
6527;SDS011;64597;42.664;23.256;2024-01-11T06:44:07;27.63;;;13.90;;
6527;SDS011;64597;42.664;23.256;2024-01-11T06:46:33;21.42;;;12.48;;
6527;SDS011;64597;42.664;23.256;2024-01-11T06:48:58;19.77;;;11.73;;
6527;SDS011;64597;42.664;23.256;2024-01-11T06:51:24;24.15;;;11.00;;
6527;SDS011;64597;42.664;23.256;2024-01-11T06:53:49;26.00;;;13.65;;
6527;SDS011;64597;42.664;23.256;2024-01-11T06:56:15;53.75;;;24.65;;
6527;SDS011;64597;42.664;23.256;2024-01-11T06:58:43;29.63;;;18.50;;
6527;SDS011;64597;42.664;23.256;2024-01-11T07:01:19;31.52;;;16.90;;
6527;SDS011;64597;42.664;23.256;2024-01-11T07:03:53;33.00;;;16.85;;
6527;SDS011;64597;42.664;23.256;2024-01-11T07:06:19;37.38;;;18.70;;
6527;SDS011;64597;42.664;23.256;2024-01-11T07:08:45;37.17;;;17.92;;
6527;SDS011;64597;42.664;23.256;2024-01-11T07:11:11;33.20;;;16.70;;
6527;SDS011;64597;42.664;23.256;2024-01-11T07:13:38;29.83;;;16.17;;
6527;SDS011;64597;42.664;23.256;2024-01-11T07:16:06;31.67;;;17.25;;
6527;SDS011;64597;42.664;23.256;2024-01-11T07:18:37;30.02;;;16.23;;
6527;SDS011;64597;42.664;23.256;2024-01-11T07:21:13;26.33;;;16.65;;
6527;SDS011;64597;42.664;23.256;2024-01-11T07:24:03;31.17;;;18.23;;
6527;SDS011;64597;42.664;23.256;2024-01-11T07:26:50;42.00;;;22.40;;
6527;SDS011;64597;42.664;23.256;2024-01-11T07:29:16;35.97;;;18.83;;
6527;SDS011;64597;42.664;23.256;2024-01-11T07:31:41;29.10;;;16.70;;
6527;SDS011;64597;42.664;23.256;2024-01-11T07:34:06;33.53;;;17.35;;
6527;SDS011;64597;42.664;23.256;2024-01-11T07:36:32;35.72;;;19.88;;
6527;SDS011;64597;42.664;23.256;2024-01-11T07:38:57;30.52;;;17.42;;
6527;SDS011;64597;42.664;23.256;2024-01-11T07:41:23;45.58;;;22.85;;
6527;SDS011;64597;42.664;23.256;2024-01-11T07:43:48;35.40;;;17.63;;
6527;SDS011;64597;42.664;23.256;2024-01-11T07:46:14;41.40;;;20.95;;
6527;SDS011;64597;42.664;23.256;2024-01-11T07:48:39;36.20;;;16.55;;
6527;SDS011;64597;42.664;23.256;2024-01-11T07:51:05;31.80;;;15.15;;
6527;SDS011;64597;42.664;23.256;2024-01-11T07:53:30;26.80;;;15.40;;
6527;SDS011;64597;42.664;23.256;2024-01-11T07:55:57;24.98;;;14.13;;
6527;SDS011;64597;42.664;23.256;2024-01-11T07:58:23;22.40;;;13.15;;
6527;SDS011;64597;42.664;23.256;2024-01-11T08:00:48;27.98;;;14.02;;
6527;SDS011;64597;42.664;23.256;2024-01-11T08:03:14;28.45;;;13.48;;
6527;SDS011;64597;42.664;23.256;2024-01-11T08:05:40;27.00;;;15.45;;
6527;SDS011;64597;42.664;23.256;2024-01-11T08:08:06;20.85;;;13.10;;
6527;SDS011;64597;42.664;23.256;2024-01-11T08:10:31;24.52;;;11.40;;
6527;SDS011;64597;42.664;23.256;2024-01-11T08:12:57;24.23;;;13.35;;
6527;SDS011;64597;42.664;23.256;2024-01-11T08:15:24;22.80;;;13.85;;
6527;SDS011;64597;42.664;23.256;2024-01-11T08:17:50;24.13;;;13.20;;
6527;SDS011;64597;42.664;23.256;2024-01-11T08:20:15;21.55;;;13.55;;
6527;SDS011;64597;42.664;23.256;2024-01-11T08:22:41;26.83;;;13.93;;
6527;SDS011;64597;42.664;23.256;2024-01-11T08:25:08;22.42;;;13.13;;
6527;SDS011;64597;42.664;23.256;2024-01-11T08:27:34;35.28;;;18.77;;
6527;SDS011;64597;42.664;23.256;2024-01-11T08:30:00;62.80;;;25.58;;
6527;SDS011;64597;42.664;23.256;2024-01-11T08:32:25;41.17;;;18.75;;
6527;SDS011;64597;42.664;23.256;2024-01-11T08:34:51;36.45;;;16.58;;
6527;SDS011;64597;42.664;23.256;2024-01-11T08:37:17;45.08;;;19.10;;
6527;SDS011;64597;42.664;23.256;2024-01-11T08:39:42;20.42;;;12.38;;
6527;SDS011;64597;42.664;23.256;2024-01-11T08:42:08;27.27;;;13.45;;
6527;SDS011;64597;42.664;23.256;2024-01-11T08:44:34;29.48;;;13.98;;
6527;SDS011;64597;42.664;23.256;2024-01-11T08:46:59;24.42;;;13.13;;
6527;SDS011;64597;42.664;23.256;2024-01-11T08:49:25;22.75;;;13.43;;
6527;SDS011;64597;42.664;23.256;2024-01-11T08:51:51;27.98;;;13.70;;
6527;SDS011;64597;42.664;23.256;2024-01-11T08:54:16;25.25;;;13.10;;
6527;SDS011;64597;42.664;23.256;2024-01-11T08:56:42;23.52;;;13.00;;
6527;SDS011;64597;42.664;23.256;2024-01-11T08:59:08;27.75;;;15.80;;
6527;SDS011;64597;42.664;23.256;2024-01-11T09:04:02;27.45;;;15.88;;
6527;SDS011;64597;42.664;23.256;2024-01-11T09:06:27;29.98;;;15.70;;
6527;SDS011;64597;42.664;23.256;2024-01-11T09:08:53;29.65;;;15.48;;
6527;SDS011;64597;42.664;23.256;2024-01-11T09:11:18;24.58;;;14.20;;
6527;SDS011;64597;42.664;23.256;2024-01-11T09:13:44;25.98;;;16.55;;
6527;SDS011;64597;42.664;23.256;2024-01-11T09:16:13;27.88;;;15.60;;
6527;SDS011;64597;42.664;23.256;2024-01-11T09:18:41;24.42;;;15.35;;
6527;SDS011;64597;42.664;23.256;2024-01-11T09:21:07;34.72;;;17.73;;
6527;SDS011;64597;42.664;23.256;2024-01-11T09:23:32;29.58;;;17.63;;
6527;SDS011;64597;42.664;23.256;2024-01-11T09:25:59;27.25;;;15.77;;
6527;SDS011;64597;42.664;23.256;2024-01-11T09:28:24;27.67;;;15.50;;
6527;SDS011;64597;42.664;23.256;2024-01-11T09:30:50;22.95;;;14.23;;
6527;SDS011;64597;42.664;23.256;2024-01-11T09:33:15;24.88;;;14.77;;
6527;SDS011;64597;42.664;23.256;2024-01-11T09:35:41;27.00;;;16.92;;
6527;SDS011;64597;42.664;23.256;2024-01-11T09:38:06;21.88;;;14.45;;
6527;SDS011;64597;42.664;23.256;2024-01-11T09:40:32;26.48;;;14.35;;
6527;SDS011;64597;42.664;23.256;2024-01-11T09:42:57;34.78;;;18.95;;
6527;SDS011;64597;42.664;23.256;2024-01-11T09:45:23;32.33;;;15.20;;
6527;SDS011;64597;42.664;23.256;2024-01-11T09:47:50;27.20;;;15.07;;
6527;SDS011;64597;42.664;23.256;2024-01-11T09:50:17;29.52;;;16.20;;
6527;SDS011;64597;42.664;23.256;2024-01-11T09:52:46;27.77;;;15.15;;
6527;SDS011;64597;42.664;23.256;2024-01-11T09:55:16;32.25;;;15.23;;
6527;SDS011;64597;42.664;23.256;2024-01-11T09:57:45;29.85;;;15.35;;
6527;SDS011;64597;42.664;23.256;2024-01-11T10:00:19;24.65;;;14.38;;
6527;SDS011;64597;42.664;23.256;2024-01-11T10:02:48;26.85;;;15.05;;
6527;SDS011;64597;42.664;23.256;2024-01-11T10:05:15;25.98;;;14.50;;
6527;SDS011;64597;42.664;23.256;2024-01-11T10:07:42;25.55;;;14.05;;
6527;SDS011;64597;42.664;23.256;2024-01-11T10:10:08;33.20;;;19.10;;
6527;SDS011;64597;42.664;23.256;2024-01-11T10:12:35;28.17;;;16.20;;
6527;SDS011;64597;42.664;23.256;2024-01-11T10:15:04;34.67;;;18.05;;
6527;SDS011;64597;42.664;23.256;2024-01-11T10:17:32;32.70;;;16.67;;
6527;SDS011;64597;42.664;23.256;2024-01-11T10:19:57;25.48;;;14.95;;
6527;SDS011;64597;42.664;23.256;2024-01-11T10:22:24;29.73;;;15.27;;
6527;SDS011;64597;42.664;23.256;2024-01-11T10:24:49;31.00;;;16.42;;
6527;SDS011;64597;42.664;23.256;2024-01-11T10:27:15;26.80;;;16.30;;
6527;SDS011;64597;42.664;23.256;2024-01-11T10:29:40;34.67;;;19.17;;
6527;SDS011;64597;42.664;23.256;2024-01-11T10:32:06;35.67;;;19.08;;
6527;SDS011;64597;42.664;23.256;2024-01-11T10:34:31;31.63;;;18.27;;
6527;SDS011;64597;42.664;23.256;2024-01-11T10:36:58;37.00;;;18.35;;
6527;SDS011;64597;42.664;23.256;2024-01-11T10:39:25;33.53;;;18.10;;
6527;SDS011;64597;42.664;23.256;2024-01-11T10:41:52;30.58;;;16.85;;
6527;SDS011;64597;42.664;23.256;2024-01-11T10:44:24;29.05;;;16.77;;
6527;SDS011;64597;42.664;23.256;2024-01-11T10:46:54;32.40;;;17.77;;
6527;SDS011;64597;42.664;23.256;2024-01-11T10:49:25;29.52;;;14.98;;
6527;SDS011;64597;42.664;23.256;2024-01-11T10:52:16;24.58;;;15.40;;
6527;SDS011;64597;42.664;23.256;2024-01-11T10:55:38;28.23;;;15.02;;
6527;SDS011;64597;42.664;23.256;2024-01-11T10:58:05;23.90;;;14.52;;
6527;SDS011;64597;42.664;23.256;2024-01-11T11:00:34;27.42;;;16.65;;
6527;SDS011;64597;42.664;23.256;2024-01-11T11:03:00;26.35;;;13.90;;
6527;SDS011;64597;42.664;23.256;2024-01-11T11:05:31;22.20;;;13.45;;
6527;SDS011;64597;42.664;23.256;2024-01-11T11:08:00;26.75;;;13.65;;
6527;SDS011;64597;42.664;23.256;2024-01-11T11:10:27;25.73;;;13.10;;
6527;SDS011;64597;42.664;23.256;2024-01-11T11:12:54;23.45;;;13.90;;
6527;SDS011;64597;42.664;23.256;2024-01-11T11:15:24;23.73;;;13.80;;
6527;SDS011;64597;42.664;23.256;2024-01-11T11:17:52;25.33;;;13.73;;
6527;SDS011;64597;42.664;23.256;2024-01-11T11:20:18;21.85;;;12.90;;
6527;SDS011;64597;42.664;23.256;2024-01-11T13:45:20;2.85;;;1.90;;
6527;SDS011;64597;42.664;23.256;2024-01-11T13:47:45;2.08;;;1.58;;
6527;SDS011;64597;42.664;23.256;2024-01-11T13:50:11;4.15;;;2.10;;
6527;SDS011;64597;42.664;23.256;2024-01-11T13:52:37;8.45;;;2.95;;
6527;SDS011;64597;42.664;23.256;2024-01-11T13:55:03;4.20;;;2.40;;
6527;SDS011;64597;42.664;23.256;2024-01-11T13:57:29;5.50;;;2.47;;
6527;SDS011;64597;42.664;23.256;2024-01-11T13:59:54;3.83;;;2.38;;
6527;SDS011;64597;42.664;23.256;2024-01-11T14:02:20;6.30;;;2.85;;
6527;SDS011;64597;42.664;23.256;2024-01-11T14:04:46;4.95;;;2.50;;
6527;SDS011;64597;42.664;23.256;2024-01-11T14:07:11;3.17;;;2.30;;
6527;SDS011;64597;42.664;23.256;2024-01-11T14:09:37;4.32;;;2.22;;
6527;SDS011;64597;42.664;23.256;2024-01-11T14:12:03;5.32;;;2.40;;
6527;SDS011;64597;42.664;23.256;2024-01-11T14:14:28;5.97;;;2.40;;
6527;SDS011;64597;42.664;23.256;2024-01-11T14:16:54;4.75;;;2.50;;
6527;SDS011;64597;42.664;23.256;2024-01-11T14:19:19;2.75;;;2.35;;
6527;SDS011;64597;42.664;23.256;2024-01-11T14:21:45;5.63;;;2.65;;
6527;SDS011;64597;42.664;23.256;2024-01-11T14:24:10;3.53;;;2.22;;
6527;SDS011;64597;42.664;23.256;2024-01-11T14:26:35;5.07;;;2.65;;
6527;SDS011;64597;42.664;23.256;2024-01-11T14:29:01;4.20;;;2.30;;
6527;SDS011;64597;42.664;23.256;2024-01-11T14:31:27;3.22;;;2.70;;
6527;SDS011;64597;42.664;23.256;2024-01-11T14:33:52;5.50;;;2.72;;
6527;SDS011;64597;42.664;23.256;2024-01-11T14:36:18;6.28;;;3.03;;
6527;SDS011;64597;42.664;23.256;2024-01-11T14:38:43;9.93;;;4.10;;
6527;SDS011;64597;42.664;23.256;2024-01-11T14:41:09;6.07;;;3.45;;
6527;SDS011;64597;42.664;23.256;2024-01-11T14:43:35;6.60;;;3.90;;
6527;SDS011;64597;42.664;23.256;2024-01-11T14:46:00;6.28;;;3.38;;
6527;SDS011;64597;42.664;23.256;2024-01-11T14:48:26;9.70;;;4.55;;
6527;SDS011;64597;42.664;23.256;2024-01-11T14:50:55;7.03;;;3.63;;
6527;SDS011;64597;42.664;23.256;2024-01-11T14:53:21;6.53;;;3.55;;
6527;SDS011;64597;42.664;23.256;2024-01-11T14:55:47;10.68;;;4.05;;
6527;SDS011;64597;42.664;23.256;2024-01-11T14:58:13;5.70;;;3.33;;
6527;SDS011;64597;42.664;23.256;2024-01-11T15:00:38;6.53;;;3.75;;
6527;SDS011;64597;42.664;23.256;2024-01-11T15:03:04;6.22;;;3.50;;
6527;SDS011;64597;42.664;23.256;2024-01-11T15:05:30;6.85;;;4.32;;
6527;SDS011;64597;42.664;23.256;2024-01-11T15:07:56;6.80;;;3.75;;
6527;SDS011;64597;42.664;23.256;2024-01-11T15:10:22;10.57;;;3.70;;
6527;SDS011;64597;42.664;23.256;2024-01-11T15:12:48;16.13;;;4.43;;
6527;SDS011;64597;42.664;23.256;2024-01-11T15:15:13;7.65;;;3.58;;
6527;SDS011;64597;42.664;23.256;2024-01-11T15:17:38;7.78;;;3.30;;
6527;SDS011;64597;42.664;23.256;2024-01-11T15:20:04;7.97;;;4.22;;
6527;SDS011;64597;42.664;23.256;2024-01-11T15:22:32;8.45;;;4.32;;
6527;SDS011;64597;42.664;23.256;2024-01-11T15:24:57;7.82;;;3.97;;
6527;SDS011;64597;42.664;23.256;2024-01-11T15:27:23;8.57;;;4.25;;
6527;SDS011;64597;42.664;23.256;2024-01-11T15:29:49;9.35;;;5.28;;
6527;SDS011;64597;42.664;23.256;2024-01-11T15:32:15;11.32;;;5.20;;
6527;SDS011;64597;42.664;23.256;2024-01-11T15:34:41;10.52;;;5.20;;
6527;SDS011;64597;42.664;23.256;2024-01-11T15:37:07;11.25;;;5.53;;
6527;SDS011;64597;42.664;23.256;2024-01-11T15:39:32;10.65;;;5.15;;
6527;SDS011;64597;42.664;23.256;2024-01-11T15:41:59;10.85;;;5.05;;
6527;SDS011;64597;42.664;23.256;2024-01-11T15:44:25;9.52;;;4.65;;
6527;SDS011;64597;42.664;23.256;2024-01-11T15:46:51;9.90;;;5.78;;
6527;SDS011;64597;42.664;23.256;2024-01-11T15:49:17;10.02;;;5.22;;
6527;SDS011;64597;42.664;23.256;2024-01-11T15:51:42;9.27;;;5.43;;
6527;SDS011;64597;42.664;23.256;2024-01-11T15:54:08;10.00;;;4.60;;
6527;SDS011;64597;42.664;23.256;2024-01-11T15:56:34;10.10;;;5.13;;
6527;SDS011;64597;42.664;23.256;2024-01-11T15:59:00;12.75;;;5.47;;
6527;SDS011;64597;42.664;23.256;2024-01-11T16:01:26;8.80;;;4.53;;
6527;SDS011;64597;42.664;23.256;2024-01-11T16:03:51;8.55;;;4.55;;
6527;SDS011;64597;42.664;23.256;2024-01-11T16:06:18;6.45;;;4.43;;
6527;SDS011;64597;42.664;23.256;2024-01-11T16:08:44;7.65;;;4.65;;
6527;SDS011;64597;42.664;23.256;2024-01-11T16:11:09;8.05;;;3.95;;
6527;SDS011;64597;42.664;23.256;2024-01-11T16:13:35;7.00;;;4.25;;
6527;SDS011;64597;42.664;23.256;2024-01-11T16:16:00;5.15;;;3.65;;
6527;SDS011;64597;42.664;23.256;2024-01-11T16:18:26;5.38;;;3.13;;
6527;SDS011;64597;42.664;23.256;2024-01-11T16:20:52;7.75;;;3.92;;
6527;SDS011;64597;42.664;23.256;2024-01-11T16:23:19;10.32;;;4.95;;
6527;SDS011;64597;42.664;23.256;2024-01-11T16:25:45;10.48;;;3.58;;
6527;SDS011;64597;42.664;23.256;2024-01-11T16:28:10;5.85;;;3.53;;
6527;SDS011;64597;42.664;23.256;2024-01-11T16:30:36;6.78;;;4.20;;
6527;SDS011;64597;42.664;23.256;2024-01-11T16:33:01;7.07;;;3.58;;
6527;SDS011;64597;42.664;23.256;2024-01-11T16:35:27;5.47;;;3.60;;
6527;SDS011;64597;42.664;23.256;2024-01-11T16:37:52;6.43;;;2.72;;
6527;SDS011;64597;42.664;23.256;2024-01-11T16:40:18;5.50;;;2.53;;
6527;SDS011;64597;42.664;23.256;2024-01-11T16:42:43;5.45;;;2.90;;
6527;SDS011;64597;42.664;23.256;2024-01-11T16:45:08;5.95;;;2.30;;
6527;SDS011;64597;42.664;23.256;2024-01-11T16:47:35;5.25;;;2.72;;
6527;SDS011;64597;42.664;23.256;2024-01-11T16:50:05;3.95;;;2.30;;
6527;SDS011;64597;42.664;23.256;2024-01-11T16:52:31;4.10;;;2.63;;
6527;SDS011;64597;42.664;23.256;2024-01-11T16:55:00;7.07;;;2.83;;